METAR Data
IDs: Format: Raw Decoded Include TAF

Data at: 2153 UTC 10 May 2021

KAJZ 102135Z AUTO 10008KT 10SM CLR 16/M02 A2996 RMK AO2 T01601016 PWINO
KAJZ 102115Z AUTO 08005KT 10SM SCT120 16/M01 A2996 RMK AO2 T01551013 PWINO
KAJZ 102055Z AUTO 06005KT 10SM SCT120 16/M01 A2998 RMK AO2 LTG DSNT N T01581007 PWINO
KAJZ 102035Z AUTO 06004KT 10SM SCT090 BKN120 14/M01 A2998 RMK AO2 T01441006 PWINO
KAJZ 102015Z AUTO 11007KT 10SM OVC080 14/00 A2998 RMK AO2 T01370000 PWINO
KAJZ 101955Z AUTO 11006KT 10SM SCT060 SCT070 OVC080 14/00 A2999 RMK AO2 T01350002 PWINO
KAJZ 101935Z AUTO 10006KT 10SM SCT060 OVC085 13/01 A2999 RMK AO2 T01320006 PWINO
KAJZ 101915Z AUTO 08009KT 10SM SCT070 OVC080 13/02 A2999 RMK AO2 T01280015 PWINO
KAJZ 101855Z AUTO 07008KT 10SM BKN060 OVC080 12/02 A3000 RMK AO2 T01240018 PWINO
KAJZ 101835Z AUTO 07006KT 10SM BKN060 OVC080 13/01 A3002 RMK AO2 T01250013 PWINO
KAJZ 101815Z AUTO 09003KT 10SM SCT050 OVC060 13/01 A3002 RMK AO2 T01260013 PWINO
KAJZ 101755Z AUTO 00000KT 10SM OVC050 12/02 A3003 RMK AO2 LTG DSNT N T01230015 10130 20080 PWINO
KAJZ 101735Z AUTO 31007KT 10SM SCT046 OVC060 13/01 A3003 RMK AO2 T01280005 PWINO
KAJZ 101715Z AUTO 28008G14KT 10SM BKN070 OVC085 13/01 A3003 RMK AO2 T01270005 PWINO
KAJZ 101655Z AUTO 29008KT 10SM SCT044 BKN060 OVC065 13/01 A3002 RMK AO2 T01250005 PWINO
KAJZ 101635Z AUTO 00000KT 10SM SCT040 SCT048 OVC060 12/01 A3003 RMK AO2 T01150008 PWINO
KAJZ 101615Z AUTO 00000KT 10SM OVC060 12/02 A3003 RMK AO2 T01160016 PWINO
KAJZ 101555Z AUTO 00000KT 10SM OVC060 11/02 A3003 RMK AO2 T01110016 PWINO
KAJZ 101535Z AUTO 00000KT 10SM OVC070 11/02 A3002 RMK AO2 T01100016 PWINO
KAJZ 101515Z AUTO 03006KT 10SM BKN070 OVC085 11/02 A3002 RMK AO2 T01050018 PWINO
KAJZ 101455Z AUTO 04005KT 10SM OVC085 10/02 A3002 RMK AO2 T01030016 PWINO
KAJZ 101435Z AUTO 01005KT 10SM OVC085 10/02 A3001 RMK AO2 T01000015 PWINO
KAJZ 101415Z AUTO 03009KT 10SM OVC085 10/01 A3000 RMK AO2 T00970014 PWINO
KAJZ 101355Z AUTO 03009KT 10SM BKN095 BKN120 09/02 A2999 RMK AO2 T00930015 PWINO
KAJZ 101335Z AUTO 01005KT 10SM SCT095 SCT110 09/02 A3000 RMK AO2 T00900015 PWINO
KAJZ 101315Z AUTO 00000KT 10SM SCT120 09/01 A3000 RMK AO2 T00890014 PWINO
KAJZ 101255Z AUTO 31003KT 10SM SCT120 10/00 A2998 RMK AO2 T00980000 PWINO
KAJZ 101235Z AUTO 25007KT 10SM CLR 09/00 A2997 RMK AO2 T00880003 PWINO
KAJZ 101215Z AUTO 20007KT 10SM CLR 08/01 A2996 RMK AO2 T00820013 PWINO
KAJZ 101155Z AUTO 25008KT 10SM CLR 10/01 A2996 RMK AO2 T00970007 10151 20090 PWINO
KAJZ 101135Z AUTO 24004KT 10SM SCT100 09/02 A2998 RMK AO2 T00900016 PWINO
KAJZ 101115Z AUTO 26006KT 10SM BKN100 09/02 A2998 RMK AO2 T00900018 PWINO
KAJZ 101055Z AUTO 00000KT 10SM BKN110 09/02 A2998 RMK AO2 T00920016 PWINO
KAJZ 101035Z AUTO 11004KT 10SM SCT120 09/02 A2996 RMK AO2 T00940018 PWINO
KAJZ 101015Z AUTO 05004KT 10SM SCT070 BKN090 BKN120 10/02 A2996 RMK AO2 T01000016 PWINO
KAJZ 100955Z AUTO 04007KT 10SM SCT080 OVC090 10/02 A2998 RMK AO2 T00980021 PWINO
KAJZ 100935Z AUTO 03011KT 10SM OVC100 10/02 A2998 RMK AO2 T00970020 PWINO
KAJZ 100915Z AUTO 05013G19KT 10SM OVC100 10/02 A2998 RMK AO2 T00950021 PWINO
KAJZ 100855Z AUTO 01014G21KT 10SM OVC100 10/02 A2998 RMK AO2 T00950020 PWINO
KAJZ 100835Z AUTO 01016G22KT 10SM SCT090 OVC110 10/02 A2998 RMK AO2 T01040017 PWINO
KAJZ 100815Z AUTO 02017KT 10SM SCT050 OVC090 12/00 A2999 RMK AO2 T01150002 PWINO
KAJZ 100755Z AUTO 05018G26KT 10SM OVC050 12/00 A2999 RMK AO2 T01231005 PWINO
KAJZ 100735Z AUTO 07017G23KT 10SM SCT044 BKN060 OVC075 14/M03 A2998 RMK AO2 T01411035 PWINO
KAJZ 100715Z AUTO 06006KT 10SM SCT080 OVC090 14/M04 A2998 RMK AO2 T01411038 PWINO
KAJZ 100655Z AUTO 09007KT 10SM OVC100 14/M04 A2998 RMK AO2 LTG DSNT SE T01401036 PWINO
KAJZ 100635Z AUTO 09004KT 10SM SCT075 OVC100 15/M05 A2998 RMK AO2 T01471047 PWINO
KAJZ 100615Z AUTO 08005KT 10SM OVC110 15/M05 A2996 RMK AO2 T01511054 PWINO
KAJZ 100555Z AUTO 00000KT 10SM OVC110 15/M05 A2995 RMK AO2 T01471051 10202 20147 402060067 PWINO
KAJZ 100535Z AUTO 00000KT 10SM SCT075 BKN100 OVC120 16/M07 A2995 RMK AO2 T01551069 PWINO
KAJZ 100515Z AUTO 28003KT 10SM OVC100 17/M10 A2995 RMK AO2 LTG DSNT E T01651105 PWINO
KAJZ 100455Z AUTO 24003KT 10SM OVC100 17/M11 A2996 RMK AO2 T01661109 PWINO
KAJZ 100435Z AUTO 28006KT 10SM BKN100 OVC120 17/M11 A2995 RMK AO2 T01661109 PWINO
KAJZ 100415Z AUTO 29007KT 10SM OVC110 17/M11 A2995 RMK AO2 T01701111 PWINO
KAJZ 100355Z AUTO 29010KT 10SM OVC120 17/M11 A2994 RMK AO2 T01711112 PWINO
KAJZ 100335Z AUTO 30007KT 10SM BKN120 17/M11 A2993 RMK AO2 T01711114 PWINO
KAJZ 100315Z AUTO 30007G16KT 10SM CLR 17/M11 A2992 RMK AO2 T01721113 PWINO
KAJZ 100255Z AUTO 31011KT 10SM CLR 17/M12 A2992 RMK AO2 T01731116 PWINO
KAJZ 100235Z AUTO 31014G19KT 10SM CLR 18/M11 A2991 RMK AO2 T01751115 PWINO
KAJZ 100215Z AUTO 31015G20KT 10SM CLR 18/M11 A2991 RMK AO2 T01751115 PWINO
KAJZ 100155Z AUTO 30017G20KT 10SM CLR 18/M11 A2991 RMK AO2 T01791113 PWINO
KAJZ 100135Z AUTO 32009G16KT 10SM CLR 18/M11 A2991 RMK AO2 T01811111 PWINO
KAJZ 100115Z AUTO 30009KT 10SM CLR 19/M11 A2991 RMK AO2 T01851111 PWINO
KAJZ 100055Z AUTO 29007KT 10SM SCT120 19/M11 A2992 RMK AO2 T01861109 PWINO
KAJZ 100035Z AUTO 30013G16KT 10SM SCT120 19/M11 A2992 RMK AO2 T01891109 PWINO
KAJZ 100015Z AUTO 26009G19KT 10SM CLR 19/M11 A2992 RMK AO2 T01931114 PWINO
KAJZ 092355Z AUTO 27015G23KT 10SM CLR 20/M11 A2992 RMK AO2 T02011114 10206 20161 PWINO
KAJZ 092335Z AUTO 28017G24KT 10SM CLR 21/M11 A2992 RMK AO2 T02051114 PWINO
KAJZ 092315Z AUTO 29018G26KT 10SM CLR 19/M11 A2992 RMK AO2 T01911111 PWINO
KAJZ 092255Z AUTO 29014G23KT 10SM SCT100 SCT120 19/M11 A2992 RMK AO2 T01891112 PWINO
KAJZ 092235Z AUTO 29015G27KT 10SM SCT100 BKN110 19/M11 A2993 RMK AO2 T01881109 PWINO
KAJZ 092215Z AUTO 29012G18KT 10SM OVC110 19/M11 A2994 RMK AO2 T01851111 PWINO
KAJZ 092155Z AUTO 32011KT 10SM BKN110 19/M11 A2995 RMK AO2 T01861109 PWINO
KAJZ 092135Z AUTO 30011G17KT 10SM SCT110 20/M11 A2995 RMK AO2 T01961110 PWINO
KAJZ 092115Z AUTO 29010G15KT 10SM CLR 20/M11 A2996 RMK AO2 T01951110 PWINO
KAJZ 092055Z AUTO 27007G18KT 10SM CLR 19/M12 A2996 RMK AO2 T01901116 PWINO
KAJZ 092035Z AUTO 27008KT 10SM CLR 18/M13 A2997 RMK AO2 T01831127 PWINO
KAJZ 092015Z AUTO 31005G15KT 10SM SCT120 19/M13 A2998 RMK AO2 T01891134 PWINO
KAJZ 091955Z AUTO 25009G15KT 10SM SCT120 19/M13 A2998 RMK AO2 T01911133 PWINO
KAJZ 091935Z AUTO 26005KT 10SM CLR 18/M14 A2999 RMK AO2 T01801139 PWINO
KAJZ 091915Z AUTO 18003KT 10SM CLR 18/M14 A3000 RMK AO2 T01751142 PWINO
KAJZ 091855Z AUTO 27004KT 10SM CLR 17/M14 A3001 RMK AO2 T01721145 PWINO
KAJZ 091835Z AUTO 26008KT 10SM CLR 17/M14 A3002 RMK AO2 T01711143 PWINO
KAJZ 091815Z AUTO 30006G14KT 10SM CLR 17/M15 A3002 RMK AO2 T01661148 PWINO
KAJZ 091755Z AUTO 24004KT 10SM CLR 16/M15 A3003 RMK AO2 T01601147 10160 20067 PWINO
KAJZ 091735Z AUTO 28004KT 10SM CLR 16/M14 A3004 RMK AO2 T01601143 PWINO
KAJZ 091715Z AUTO 00000KT 10SM CLR 15/M14 A3004 RMK AO2 T01451141 PWINO
KAJZ 091655Z AUTO 00000KT 10SM CLR 14/M13 A3005 RMK AO2 T01411130 PWINO
KAJZ 091635Z AUTO 00000KT 10SM CLR 13/M12 A3005 RMK AO2 T01331117 PWINO
KAJZ 091615Z AUTO 27003KT 10SM CLR 13/M11 A3005 RMK AO2 T01321107 PWINO
KAJZ 091555Z AUTO 25004KT 10SM CLR 13/M10 A3006 RMK AO2 T01271099 PWINO
KAJZ 091535Z AUTO 00000KT 10SM CLR 13/M10 A3006 RMK AO2 T01281100 PWINO
KAJZ 091515Z AUTO 06003KT 10SM CLR 12/M10 A3006 RMK AO2 T01221096 PWINO
KAJZ 091455Z AUTO 07003KT 10SM CLR 12/M10 A3006 RMK AO2 T01181098 PWINO
KAJZ 091435Z AUTO 05003KT 10SM CLR 12/M10 A3006 RMK AO2 T01151099 PWINO
KAJZ 091415Z AUTO 00000KT 10SM CLR 11/M10 A3006 RMK AO2 T01051098 PWINO
KAJZ 091355Z AUTO 06004KT 10SM CLR 10/M09 A3006 RMK AO2 T00981091 PWINO
KAJZ 091335Z AUTO 05003KT 10SM CLR 10/M09 A3006 RMK AO2 T00971092 PWINO
KAJZ 091315Z AUTO 06006KT 10SM CLR 10/M09 A3005 RMK AO2 T00951089 PWINO
KAJZ 091255Z AUTO 04005KT 10SM CLR 09/M08 A3004 RMK AO2 T00851078 PWINO
KAJZ 091235Z AUTO 33003KT 10SM CLR 08/M08 A3003 RMK AO2 T00781081 PWINO
KAJZ 091215Z AUTO 36006KT 10SM CLR 07/M06 A3002 RMK AO2 T00701057 PWINO
KAJZ 091155Z AUTO 00000KT 10SM CLR 09/M09 A3001 RMK AO2 T00941091 10150 20080 PWINO
KAJZ 091135Z AUTO 00000KT 10SM CLR 10/M09 A3000 RMK AO2 T00961091 PWINO
KAJZ 091115Z AUTO 08004KT 10SM CLR 09/M07 A3000 RMK AO2 T00871074 PWINO
KAJZ 091055Z AUTO 03004KT 10SM CLR 09/M07 A2999 RMK AO2 T00851071 PWINO
KAJZ 091035Z AUTO 02005KT 10SM CLR 09/M06 A2999 RMK AO2 T00851063 PWINO
KAJZ 091015Z AUTO 00000KT 10SM CLR 10/M09 A2999 RMK AO2 T00951095 PWINO
KAJZ 090955Z AUTO 10004KT 10SM CLR 10/M08 A2998 RMK AO2 T00961079 PWINO